sensor_id;sensor_type;location;lat;lon;timestamp;P1;durP1;ratioP1;P2;durP2;ratioP2
45318;SDS011;31057;48.498;32.260;2023-09-19T01:08:50;33.45;;;29.88;;
45318;SDS011;31057;48.498;32.260;2023-09-19T01:10:55;38.90;;;28.67;;
45318;SDS011;31057;48.498;32.260;2023-09-19T01:17:48;37.97;;;27.80;;
45318;SDS011;31057;48.498;32.260;2023-09-19T01:22:21;43.00;;;28.48;;
45318;SDS011;31057;48.498;32.260;2023-09-19T01:27:27;32.30;;;26.77;;
45318;SDS011;31057;48.498;32.260;2023-09-19T01:30:04;37.42;;;26.58;;
45318;SDS011;31057;48.498;32.260;2023-09-19T01:32:17;37.00;;;27.80;;
45318;SDS011;31057;48.498;32.260;2023-09-19T01:34:24;34.00;;;26.30;;
45318;SDS011;31057;48.498;32.260;2023-09-19T01:36:29;40.45;;;27.10;;
45318;SDS011;31057;48.498;32.260;2023-09-19T01:38:36;41.72;;;27.80;;
45318;SDS011;31057;48.498;32.260;2023-09-19T01:40:40;35.05;;;27.55;;
45318;SDS011;31057;48.498;32.260;2023-09-19T01:44:59;39.67;;;27.48;;
45318;SDS011;31057;48.498;32.260;2023-09-19T01:47:19;42.97;;;29.65;;
45318;SDS011;31057;48.498;32.260;2023-09-19T01:52:10;49.65;;;29.13;;
45318;SDS011;31057;48.498;32.260;2023-09-19T01:54:30;42.88;;;27.60;;
45318;SDS011;31057;48.498;32.260;2023-09-19T01:56:56;47.40;;;29.33;;
45318;SDS011;31057;48.498;32.260;2023-09-19T01:59:34;40.75;;;26.67;;
45318;SDS011;31057;48.498;32.260;2023-09-19T02:01:42;40.80;;;25.98;;
45318;SDS011;31057;48.498;32.260;2023-09-19T02:03:49;37.90;;;26.55;;
45318;SDS011;31057;48.498;32.260;2023-09-19T02:05:52;38.72;;;27.38;;
45318;SDS011;31057;48.498;32.260;2023-09-19T02:07:55;40.75;;;28.52;;
45318;SDS011;31057;48.498;32.260;2023-09-19T02:09:58;42.58;;;29.55;;
45318;SDS011;31057;48.498;32.260;2023-09-19T02:12:04;50.38;;;30.42;;
45318;SDS011;31057;48.498;32.260;2023-09-19T02:14:07;35.90;;;27.48;;
45318;SDS011;31057;48.498;32.260;2023-09-19T02:16:10;45.35;;;29.13;;
45318;SDS011;31057;48.498;32.260;2023-09-19T02:18:13;39.03;;;28.77;;
45318;SDS011;31057;48.498;32.260;2023-09-19T02:20:15;54.10;;;31.40;;
45318;SDS011;31057;48.498;32.260;2023-09-19T02:22:18;39.65;;;26.75;;
45318;SDS011;31057;48.498;32.260;2023-09-19T02:24:20;33.50;;;25.10;;
45318;SDS011;31057;48.498;32.260;2023-09-19T02:26:22;31.13;;;25.92;;
45318;SDS011;31057;48.498;32.260;2023-09-19T02:28:24;42.90;;;26.83;;
45318;SDS011;31057;48.498;32.260;2023-09-19T02:30:31;33.95;;;26.58;;
45318;SDS011;31057;48.498;32.260;2023-09-19T02:32:34;41.92;;;28.52;;
45318;SDS011;31057;48.498;32.260;2023-09-19T02:34:40;34.85;;;26.10;;
45318;SDS011;31057;48.498;32.260;2023-09-19T02:36:43;43.30;;;28.77;;
45318;SDS011;31057;48.498;32.260;2023-09-19T02:38:46;33.13;;;27.20;;
45318;SDS011;31057;48.498;32.260;2023-09-19T02:40:48;39.38;;;27.48;;
45318;SDS011;31057;48.498;32.260;2023-09-19T02:42:54;33.85;;;27.25;;
45318;SDS011;31057;48.498;32.260;2023-09-19T02:44:57;47.58;;;28.90;;
45318;SDS011;31057;48.498;32.260;2023-09-19T02:46:59;39.65;;;27.05;;
45318;SDS011;31057;48.498;32.260;2023-09-19T02:51:07;43.30;;;29.35;;
45318;SDS011;31057;48.498;32.260;2023-09-19T02:55:14;47.00;;;28.35;;
45318;SDS011;31057;48.498;32.260;2023-09-19T02:57:21;45.67;;;29.70;;
45318;SDS011;31057;48.498;32.260;2023-09-19T02:59:25;36.92;;;25.23;;
45318;SDS011;31057;48.498;32.260;2023-09-19T03:03:29;40.00;;;27.23;;
45318;SDS011;31057;48.498;32.260;2023-09-19T03:07:34;32.00;;;24.65;;
45318;SDS011;31057;48.498;32.260;2023-09-19T03:09:37;45.10;;;27.40;;
45318;SDS011;31057;48.498;32.260;2023-09-19T03:11:39;28.92;;;23.40;;
45318;SDS011;31057;48.498;32.260;2023-09-19T03:13:43;42.65;;;28.70;;
45318;SDS011;31057;48.498;32.260;2023-09-19T03:15:47;41.97;;;27.63;;
45318;SDS011;31057;48.498;32.260;2023-09-19T03:17:52;38.47;;;28.48;;
45318;SDS011;31057;48.498;32.260;2023-09-19T03:19:55;45.45;;;28.55;;
45318;SDS011;31057;48.498;32.260;2023-09-19T03:21:58;37.17;;;25.05;;
45318;SDS011;31057;48.498;32.260;2023-09-19T03:24:00;45.80;;;28.13;;
45318;SDS011;31057;48.498;32.260;2023-09-19T03:26:03;41.70;;;28.00;;
45318;SDS011;31057;48.498;32.260;2023-09-19T03:28:06;50.42;;;28.33;;
45318;SDS011;31057;48.498;32.260;2023-09-19T03:30:08;37.75;;;25.30;;
45318;SDS011;31057;48.498;32.260;2023-09-19T03:32:14;40.83;;;27.67;;
45318;SDS011;31057;48.498;32.260;2023-09-19T03:36:18;44.17;;;29.42;;
45318;SDS011;31057;48.498;32.260;2023-09-19T03:38:20;49.33;;;30.65;;
45318;SDS011;31057;48.498;32.260;2023-09-19T03:40:23;49.55;;;30.35;;
45318;SDS011;31057;48.498;32.260;2023-09-19T03:42:25;54.08;;;30.50;;
45318;SDS011;31057;48.498;32.260;2023-09-19T03:44:27;53.17;;;29.42;;
45318;SDS011;31057;48.498;32.260;2023-09-19T03:46:29;38.88;;;25.80;;
45318;SDS011;31057;48.498;32.260;2023-09-19T03:48:33;39.63;;;27.05;;
45318;SDS011;31057;48.498;32.260;2023-09-19T03:50:35;39.03;;;25.40;;
45318;SDS011;31057;48.498;32.260;2023-09-19T03:52:38;53.47;;;28.63;;
45318;SDS011;31057;48.498;32.260;2023-09-19T03:54:40;42.80;;;28.35;;
45318;SDS011;31057;48.498;32.260;2023-09-19T03:56:42;42.25;;;27.83;;
45318;SDS011;31057;48.498;32.260;2023-09-19T03:58:45;40.50;;;24.67;;
45318;SDS011;31057;48.498;32.260;2023-09-19T04:00:47;34.58;;;25.20;;
45318;SDS011;31057;48.498;32.260;2023-09-19T04:02:51;39.70;;;28.27;;
45318;SDS011;31057;48.498;32.260;2023-09-19T04:04:54;36.70;;;25.95;;
45318;SDS011;31057;48.498;32.260;2023-09-19T04:08:58;39.63;;;26.85;;
45318;SDS011;31057;48.498;32.260;2023-09-19T04:11:00;34.15;;;26.55;;
45318;SDS011;31057;48.498;32.260;2023-09-19T04:13:02;37.13;;;26.77;;
45318;SDS011;31057;48.498;32.260;2023-09-19T04:15:05;37.97;;;27.17;;
45318;SDS011;31057;48.498;32.260;2023-09-19T04:17:07;36.90;;;25.42;;
45318;SDS011;31057;48.498;32.260;2023-09-19T04:19:11;33.78;;;25.50;;
45318;SDS011;31057;48.498;32.260;2023-09-19T04:21:14;43.42;;;27.30;;
45318;SDS011;31057;48.498;32.260;2023-09-19T04:23:16;36.72;;;27.02;;
45318;SDS011;31057;48.498;32.260;2023-09-19T04:25:18;45.22;;;26.00;;
45318;SDS011;31057;48.498;32.260;2023-09-19T04:27:20;41.28;;;27.60;;
45318;SDS011;31057;48.498;32.260;2023-09-19T04:29:22;35.40;;;26.20;;
45318;SDS011;31057;48.498;32.260;2023-09-19T04:31:24;41.55;;;25.27;;
45318;SDS011;31057;48.498;32.260;2023-09-19T04:33:27;38.53;;;25.27;;
45318;SDS011;31057;48.498;32.260;2023-09-19T04:35:29;36.30;;;26.35;;
45318;SDS011;31057;48.498;32.260;2023-09-19T04:37:32;34.65;;;26.17;;
45318;SDS011;31057;48.498;32.260;2023-09-19T04:41:36;39.70;;;24.65;;
45318;SDS011;31057;48.498;32.260;2023-09-19T04:43:40;34.67;;;25.58;;
45318;SDS011;31057;48.498;32.260;2023-09-19T04:47:44;35.53;;;25.02;;
45318;SDS011;31057;48.498;32.260;2023-09-19T04:49:47;36.88;;;25.55;;
45318;SDS011;31057;48.498;32.260;2023-09-19T04:53:52;41.08;;;25.90;;
45318;SDS011;31057;48.498;32.260;2023-09-19T04:55:54;50.92;;;26.30;;
45318;SDS011;31057;48.498;32.260;2023-09-19T04:57:57;42.05;;;26.25;;
45318;SDS011;31057;48.498;32.260;2023-09-19T04:59:59;44.53;;;25.02;;
45318;SDS011;31057;48.498;32.260;2023-09-19T05:02:01;51.35;;;31.15;;
45318;SDS011;31057;48.498;32.260;2023-09-19T05:06:06;54.60;;;24.30;;
45318;SDS011;31057;48.498;32.260;2023-09-19T05:08:08;37.38;;;22.60;;
45318;SDS011;31057;48.498;32.260;2023-09-19T05:10:11;43.40;;;22.80;;
45318;SDS011;31057;48.498;32.260;2023-09-19T05:12:13;38.08;;;23.27;;
45318;SDS011;31057;48.498;32.260;2023-09-19T05:14:16;40.55;;;22.50;;
45318;SDS011;31057;48.498;32.260;2023-09-19T05:16:18;34.38;;;21.65;;
45318;SDS011;31057;48.498;32.260;2023-09-19T05:18:21;36.17;;;22.88;;
45318;SDS011;31057;48.498;32.260;2023-09-19T05:20:23;34.17;;;21.33;;
45318;SDS011;31057;48.498;32.260;2023-09-19T05:22:34;35.85;;;21.77;;
45318;SDS011;31057;48.498;32.260;2023-09-19T05:24:36;29.55;;;18.38;;
45318;SDS011;31057;48.498;32.260;2023-09-19T05:26:38;26.85;;;17.95;;
45318;SDS011;31057;48.498;32.260;2023-09-19T05:28:40;27.05;;;18.65;;
45318;SDS011;31057;48.498;32.260;2023-09-19T05:32:49;27.13;;;18.65;;
45318;SDS011;31057;48.498;32.260;2023-09-19T05:34:52;28.52;;;19.40;;
45318;SDS011;31057;48.498;32.260;2023-09-19T05:36:55;32.92;;;19.30;;
45318;SDS011;31057;48.498;32.260;2023-09-19T05:38:57;31.60;;;19.33;;
45318;SDS011;31057;48.498;32.260;2023-09-19T05:40:59;31.60;;;19.05;;
45318;SDS011;31057;48.498;32.260;2023-09-19T05:43:01;31.40;;;19.00;;
45318;SDS011;31057;48.498;32.260;2023-09-19T05:45:07;27.23;;;18.45;;
45318;SDS011;31057;48.498;32.260;2023-09-19T05:47:09;30.65;;;19.30;;
45318;SDS011;31057;48.498;32.260;2023-09-19T05:51:13;33.00;;;18.90;;
45318;SDS011;31057;48.498;32.260;2023-09-19T05:55:20;30.30;;;18.80;;
45318;SDS011;31057;48.498;32.260;2023-09-19T05:57:25;23.42;;;18.63;;
45318;SDS011;31057;48.498;32.260;2023-09-19T05:59:29;27.55;;;18.27;;
45318;SDS011;31057;48.498;32.260;2023-09-19T06:01:31;28.35;;;18.00;;
45318;SDS011;31057;48.498;32.260;2023-09-19T06:03:35;23.98;;;17.67;;
45318;SDS011;31057;48.498;32.260;2023-09-19T06:05:38;23.27;;;16.80;;
45318;SDS011;31057;48.498;32.260;2023-09-19T06:07:40;25.15;;;16.25;;
45318;SDS011;31057;48.498;32.260;2023-09-19T06:09:43;30.95;;;15.32;;
45318;SDS011;31057;48.498;32.260;2023-09-19T06:11:45;24.50;;;15.30;;
45318;SDS011;31057;48.498;32.260;2023-09-19T06:13:48;25.27;;;14.15;;
45318;SDS011;31057;48.498;32.260;2023-09-19T06:19:56;23.95;;;15.00;;
45318;SDS011;31057;48.498;32.260;2023-09-19T06:21:58;24.10;;;14.48;;
45318;SDS011;31057;48.498;32.260;2023-09-19T06:26:03;24.15;;;13.80;;
45318;SDS011;31057;48.498;32.260;2023-09-19T06:28:08;22.58;;;14.02;;
45318;SDS011;31057;48.498;32.260;2023-09-19T06:30:13;21.90;;;12.95;;
45318;SDS011;31057;48.498;32.260;2023-09-19T06:32:16;21.45;;;13.52;;
45318;SDS011;31057;48.498;32.260;2023-09-19T06:36:19;23.48;;;13.65;;
45318;SDS011;31057;48.498;32.260;2023-09-19T06:40:24;13.68;;;11.65;;
45318;SDS011;31057;48.498;32.260;2023-09-19T06:42:27;16.70;;;11.48;;
45318;SDS011;31057;48.498;32.260;2023-09-19T06:44:29;13.65;;;10.88;;
45318;SDS011;31057;48.498;32.260;2023-09-19T06:46:33;29.10;;;11.60;;
45318;SDS011;31057;48.498;32.260;2023-09-19T06:48:36;20.45;;;11.13;;
45318;SDS011;31057;48.498;32.260;2023-09-19T06:50:38;19.85;;;11.27;;
45318;SDS011;31057;48.498;32.260;2023-09-19T06:52:42;20.08;;;11.98;;
45318;SDS011;31057;48.498;32.260;2023-09-19T06:56:46;18.88;;;10.05;;
45318;SDS011;31057;48.498;32.260;2023-09-19T06:58:48;15.88;;;11.27;;
45318;SDS011;31057;48.498;32.260;2023-09-19T07:00:50;20.63;;;11.35;;
45318;SDS011;31057;48.498;32.260;2023-09-19T07:05:02;18.38;;;10.55;;
45318;SDS011;31057;48.498;32.260;2023-09-19T07:07:06;16.17;;;10.13;;
45318;SDS011;31057;48.498;32.260;2023-09-19T07:09:10;20.55;;;10.38;;
45318;SDS011;31057;48.498;32.260;2023-09-19T07:11:12;20.80;;;10.93;;
45318;SDS011;31057;48.498;32.260;2023-09-19T07:13:14;19.05;;;10.32;;
45318;SDS011;31057;48.498;32.260;2023-09-19T07:15:17;19.08;;;10.30;;
45318;SDS011;31057;48.498;32.260;2023-09-19T07:17:19;17.92;;;9.85;;
45318;SDS011;31057;48.498;32.260;2023-09-19T07:19:22;12.60;;;10.38;;
45318;SDS011;31057;48.498;32.260;2023-09-19T07:21:24;14.38;;;10.35;;
45318;SDS011;31057;48.498;32.260;2023-09-19T07:23:26;19.17;;;10.48;;
45318;SDS011;31057;48.498;32.260;2023-09-19T07:25:29;17.15;;;10.55;;
45318;SDS011;31057;48.498;32.260;2023-09-19T07:27:31;14.45;;;9.32;;
45318;SDS011;31057;48.498;32.260;2023-09-19T07:29:33;16.52;;;9.85;;
45318;SDS011;31057;48.498;32.260;2023-09-19T07:31:35;17.50;;;9.80;;
45318;SDS011;31057;48.498;32.260;2023-09-19T07:35:40;15.02;;;8.38;;
45318;SDS011;31057;48.498;32.260;2023-09-19T07:37:47;16.90;;;8.57;;
45318;SDS011;31057;48.498;32.260;2023-09-19T07:39:51;16.40;;;8.85;;
45318;SDS011;31057;48.498;32.260;2023-09-19T07:43:55;14.52;;;7.88;;
45318;SDS011;31057;48.498;32.260;2023-09-19T07:46:02;11.52;;;7.50;;
45318;SDS011;31057;48.498;32.260;2023-09-19T07:48:05;10.25;;;6.88;;
45318;SDS011;31057;48.498;32.260;2023-09-19T07:50:15;16.98;;;6.53;;
45318;SDS011;31057;48.498;32.260;2023-09-19T07:52:20;14.60;;;6.78;;
45318;SDS011;31057;48.498;32.260;2023-09-19T07:54:24;10.45;;;7.07;;
45318;SDS011;31057;48.498;32.260;2023-09-19T07:56:26;10.98;;;6.63;;
45318;SDS011;31057;48.498;32.260;2023-09-19T07:58:29;9.65;;;7.20;;
45318;SDS011;31057;48.498;32.260;2023-09-19T08:02:36;9.77;;;6.80;;
45318;SDS011;31057;48.498;32.260;2023-09-19T08:04:45;8.18;;;6.22;;
45318;SDS011;31057;48.498;32.260;2023-09-19T08:06:47;9.90;;;6.80;;
45318;SDS011;31057;48.498;32.260;2023-09-19T08:10:55;8.00;;;6.50;;
45318;SDS011;31057;48.498;32.260;2023-09-19T08:12:58;11.43;;;6.75;;
45318;SDS011;31057;48.498;32.260;2023-09-19T08:15:02;10.57;;;6.55;;
45318;SDS011;31057;48.498;32.260;2023-09-19T08:17:04;10.65;;;6.60;;
45318;SDS011;31057;48.498;32.260;2023-09-19T08:19:10;12.77;;;6.93;;
45318;SDS011;31057;48.498;32.260;2023-09-19T08:21:12;18.10;;;7.70;;
45318;SDS011;31057;48.498;32.260;2023-09-19T08:23:18;12.25;;;6.55;;
45318;SDS011;31057;48.498;32.260;2023-09-19T08:25:22;18.55;;;8.27;;
45318;SDS011;31057;48.498;32.260;2023-09-19T08:27:26;14.35;;;6.18;;
45318;SDS011;31057;48.498;32.260;2023-09-19T08:29:28;13.43;;;6.45;;
45318;SDS011;31057;48.498;32.260;2023-09-19T08:31:30;13.27;;;6.60;;
45318;SDS011;31057;48.498;32.260;2023-09-19T08:33:33;6.90;;;5.88;;
45318;SDS011;31057;48.498;32.260;2023-09-19T08:35:36;7.97;;;6.13;;
45318;SDS011;31057;48.498;32.260;2023-09-19T08:37:42;12.20;;;6.28;;
45318;SDS011;31057;48.498;32.260;2023-09-19T08:39:46;19.75;;;9.35;;
45318;SDS011;31057;48.498;32.260;2023-09-19T08:41:48;11.75;;;6.32;;
45318;SDS011;31057;48.498;32.260;2023-09-19T08:43:50;9.00;;;5.85;;
45318;SDS011;31057;48.498;32.260;2023-09-19T08:45:56;9.10;;;6.30;;
45318;SDS011;31057;48.498;32.260;2023-09-19T08:50:11;11.30;;;6.90;;
45318;SDS011;31057;48.498;32.260;2023-09-19T08:52:27;10.15;;;5.72;;
45318;SDS011;31057;48.498;32.260;2023-09-19T08:54:37;21.30;;;6.17;;
45318;SDS011;31057;48.498;32.260;2023-09-19T08:56:42;14.48;;;6.30;;
45318;SDS011;31057;48.498;32.260;2023-09-19T08:58:53;11.77;;;6.18;;
45318;SDS011;31057;48.498;32.260;2023-09-19T09:01:00;9.20;;;5.40;;
45318;SDS011;31057;48.498;32.260;2023-09-19T09:03:03;10.75;;;5.25;;
45318;SDS011;31057;48.498;32.260;2023-09-19T09:05:08;9.10;;;5.35;;
45318;SDS011;31057;48.498;32.260;2023-09-19T09:07:12;7.40;;;5.93;;
45318;SDS011;31057;48.498;32.260;2023-09-19T09:09:14;13.45;;;5.55;;
45318;SDS011;31057;48.498;32.260;2023-09-19T09:11:17;8.85;;;5.63;;
45318;SDS011;31057;48.498;32.260;2023-09-19T09:13:19;6.57;;;5.10;;
45318;SDS011;31057;48.498;32.260;2023-09-19T09:15:23;10.90;;;5.60;;
45318;SDS011;31057;48.498;32.260;2023-09-19T09:17:25;11.95;;;5.45;;
45318;SDS011;31057;48.498;32.260;2023-09-19T09:19:28;10.90;;;5.35;;
45318;SDS011;31057;48.498;32.260;2023-09-19T09:21:32;13.80;;;5.63;;
45318;SDS011;31057;48.498;32.260;2023-09-19T09:23:38;9.88;;;6.25;;
45318;SDS011;31057;48.498;32.260;2023-09-19T09:25:53;8.48;;;5.97;;
45318;SDS011;31057;48.498;32.260;2023-09-19T09:28:00;7.72;;;5.20;;
45318;SDS011;31057;48.498;32.260;2023-09-19T09:30:03;6.35;;;5.03;;
45318;SDS011;31057;48.498;32.260;2023-09-19T09:34:22;7.68;;;5.40;;
45318;SDS011;31057;48.498;32.260;2023-09-19T09:36:35;9.00;;;5.80;;
45318;SDS011;31057;48.498;32.260;2023-09-19T09:38:43;6.18;;;5.20;;
45318;SDS011;31057;48.498;32.260;2023-09-19T09:40:47;9.52;;;5.20;;
45318;SDS011;31057;48.498;32.260;2023-09-19T09:43:01;10.35;;;5.68;;
45318;SDS011;31057;48.498;32.260;2023-09-19T09:45:14;12.57;;;5.45;;
45318;SDS011;31057;48.498;32.260;2023-09-19T09:47:22;8.70;;;5.53;;
45318;SDS011;31057;48.498;32.260;2023-09-19T09:49:51;8.20;;;5.03;;
45318;SDS011;31057;48.498;32.260;2023-09-19T09:52:08;11.15;;;5.82;;
45318;SDS011;31057;48.498;32.260;2023-09-19T09:54:19;8.13;;;4.97;;
45318;SDS011;31057;48.498;32.260;2023-09-19T09:56:22;9.63;;;5.40;;
45318;SDS011;31057;48.498;32.260;2023-09-19T09:58:24;15.75;;;6.00;;
45318;SDS011;31057;48.498;32.260;2023-09-19T10:00:30;7.97;;;6.10;;
45318;SDS011;31057;48.498;32.260;2023-09-19T10:02:43;10.07;;;5.80;;
45318;SDS011;31057;48.498;32.260;2023-09-19T10:04:48;9.88;;;5.28;;
45318;SDS011;31057;48.498;32.260;2023-09-19T10:06:53;9.50;;;5.97;;
45318;SDS011;31057;48.498;32.260;2023-09-19T10:09:05;8.68;;;5.50;;
45318;SDS011;31057;48.498;32.260;2023-09-19T10:11:17;10.15;;;5.45;;
45318;SDS011;31057;48.498;32.260;2023-09-19T10:13:21;22.00;;;6.43;;
45318;SDS011;31057;48.498;32.260;2023-09-19T10:15:29;10.82;;;6.15;;
45318;SDS011;31057;48.498;32.260;2023-09-19T10:17:34;7.72;;;5.28;;
45318;SDS011;31057;48.498;32.260;2023-09-19T10:19:41;11.32;;;6.03;;
45318;SDS011;31057;48.498;32.260;2023-09-19T10:21:49;12.33;;;6.17;;
45318;SDS011;31057;48.498;32.260;2023-09-19T10:23:52;12.75;;;5.80;;
45318;SDS011;31057;48.498;32.260;2023-09-19T10:25:58;12.75;;;5.88;;
45318;SDS011;31057;48.498;32.260;2023-09-19T10:28:05;13.82;;;6.13;;
45318;SDS011;31057;48.498;32.260;2023-09-19T10:30:13;10.70;;;5.18;;
45318;SDS011;31057;48.498;32.260;2023-09-19T10:32:17;12.70;;;5.57;;
45318;SDS011;31057;48.498;32.260;2023-09-19T10:34:23;11.98;;;5.63;;
45318;SDS011;31057;48.498;32.260;2023-09-19T10:36:26;8.13;;;5.00;;
45318;SDS011;31057;48.498;32.260;2023-09-19T10:38:34;15.00;;;5.80;;
45318;SDS011;31057;48.498;32.260;2023-09-19T10:40:42;7.82;;;5.47;;
45318;SDS011;31057;48.498;32.260;2023-09-19T10:42:47;14.27;;;6.50;;
45318;SDS011;31057;48.498;32.260;2023-09-19T10:44:52;12.02;;;5.32;;
45318;SDS011;31057;48.498;32.260;2023-09-19T10:46:57;10.73;;;5.20;;
45318;SDS011;31057;48.498;32.260;2023-09-19T10:49:02;9.63;;;6.63;;
45318;SDS011;31057;48.498;32.260;2023-09-19T10:53:11;10.80;;;5.78;;
45318;SDS011;31057;48.498;32.260;2023-09-19T10:55:15;9.18;;;5.28;;
45318;SDS011;31057;48.498;32.260;2023-09-19T10:57:24;12.20;;;5.32;;
45318;SDS011;31057;48.498;32.260;2023-09-19T10:59:29;8.75;;;5.70;;
45318;SDS011;31057;48.498;32.260;2023-09-19T11:03:49;15.30;;;6.25;;
45318;SDS011;31057;48.498;32.260;2023-09-19T11:06:33;19.63;;;6.05;;
45318;SDS011;31057;48.498;32.260;2023-09-19T11:08:55;7.75;;;6.15;;
45318;SDS011;31057;48.498;32.260;2023-09-19T11:11:06;7.63;;;5.80;;
45318;SDS011;31057;48.498;32.260;2023-09-19T11:13:41;10.00;;;6.72;;
45318;SDS011;31057;48.498;32.260;2023-09-19T11:18:00;13.00;;;6.30;;
45318;SDS011;31057;48.498;32.260;2023-09-19T11:22:24;7.40;;;6.25;;
45318;SDS011;31057;48.498;32.260;2023-09-19T11:24:28;8.20;;;5.43;;
45318;SDS011;31057;48.498;32.260;2023-09-19T11:26:42;10.82;;;6.45;;
45318;SDS011;31057;48.498;32.260;2023-09-19T11:28:49;8.77;;;5.40;;
45318;SDS011;31057;48.498;32.260;2023-09-19T11:31:42;16.38;;;5.70;;
45318;SDS011;31057;48.498;32.260;2023-09-19T11:33:46;14.18;;;6.32;;
45318;SDS011;31057;48.498;32.260;2023-09-19T11:36:00;10.98;;;5.32;;
45318;SDS011;31057;48.498;32.260;2023-09-19T11:38:03;8.88;;;5.72;;
45318;SDS011;31057;48.498;32.260;2023-09-19T11:40:09;12.48;;;6.85;;
45318;SDS011;31057;48.498;32.260;2023-09-19T11:44:47;12.32;;;9.43;;
45318;SDS011;31057;48.498;32.260;2023-09-19T11:48:52;14.02;;;7.70;;
45318;SDS011;31057;48.498;32.260;2023-09-19T11:50:55;16.05;;;7.47;;
45318;SDS011;31057;48.498;32.260;2023-09-19T11:52:58;11.80;;;6.82;;
45318;SDS011;31057;48.498;32.260;2023-09-19T11:55:01;11.90;;;6.55;;
45318;SDS011;31057;48.498;32.260;2023-09-19T11:57:04;13.02;;;7.03;;
45318;SDS011;31057;48.498;32.260;2023-09-19T11:59:06;12.13;;;6.80;;
45318;SDS011;31057;48.498;32.260;2023-09-19T12:01:11;8.07;;;6.57;;
45318;SDS011;31057;48.498;32.260;2023-09-19T12:03:16;12.80;;;7.07;;
45318;SDS011;31057;48.498;32.260;2023-09-19T12:05:28;15.93;;;8.65;;
45318;SDS011;31057;48.498;32.260;2023-09-19T12:07:30;15.43;;;6.47;;
45318;SDS011;31057;48.498;32.260;2023-09-19T12:09:51;7.80;;;5.97;;
45318;SDS011;31057;48.498;32.260;2023-09-19T12:12:06;14.63;;;5.95;;
45318;SDS011;31057;48.498;32.260;2023-09-19T12:14:08;14.52;;;7.15;;
45318;SDS011;31057;48.498;32.260;2023-09-19T12:16:11;9.52;;;5.40;;
45318;SDS011;31057;48.498;32.260;2023-09-19T12:18:29;11.82;;;6.13;;
45318;SDS011;31057;48.498;32.260;2023-09-19T12:20:44;10.55;;;6.50;;
45318;SDS011;31057;48.498;32.260;2023-09-19T12:22:52;7.57;;;5.45;;
45318;SDS011;31057;48.498;32.260;2023-09-19T12:24:54;12.65;;;6.05;;
45318;SDS011;31057;48.498;32.260;2023-09-19T12:27:08;12.43;;;5.90;;
45318;SDS011;31057;48.498;32.260;2023-09-19T12:29:17;14.88;;;6.07;;
45318;SDS011;31057;48.498;32.260;2023-09-19T12:31:20;9.77;;;6.05;;
45318;SDS011;31057;48.498;32.260;2023-09-19T12:33:23;12.40;;;6.15;;
45318;SDS011;31057;48.498;32.260;2023-09-19T12:35:27;11.73;;;6.97;;
45318;SDS011;31057;48.498;32.260;2023-09-19T12:37:45;8.75;;;6.90;;
45318;SDS011;31057;48.498;32.260;2023-09-19T12:40:02;11.65;;;6.35;;
45318;SDS011;31057;48.498;32.260;2023-09-19T12:42:19;8.15;;;7.00;;
45318;SDS011;31057;48.498;32.260;2023-09-19T12:44:23;8.57;;;6.60;;
45318;SDS011;31057;48.498;32.260;2023-09-19T12:46:26;9.88;;;6.63;;
45318;SDS011;31057;48.498;32.260;2023-09-19T12:48:28;8.63;;;5.75;;
45318;SDS011;31057;48.498;32.260;2023-09-19T12:50:35;12.73;;;6.90;;
45318;SDS011;31057;48.498;32.260;2023-09-19T12:52:58;15.20;;;7.60;;
45318;SDS011;31057;48.498;32.260;2023-09-19T12:55:01;8.35;;;6.22;;
45318;SDS011;31057;48.498;32.260;2023-09-19T12:57:04;15.90;;;8.32;;
45318;SDS011;31057;48.498;32.260;2023-09-19T12:59:06;12.40;;;6.68;;
45318;SDS011;31057;48.498;32.260;2023-09-19T13:01:14;7.78;;;6.03;;
45318;SDS011;31057;48.498;32.260;2023-09-19T13:03:18;11.75;;;7.07;;
45318;SDS011;31057;48.498;32.260;2023-09-19T13:07:51;11.07;;;7.28;;
45318;SDS011;31057;48.498;32.260;2023-09-19T13:10:04;11.27;;;6.68;;
45318;SDS011;31057;48.498;32.260;2023-09-19T13:14:38;8.80;;;7.47;;
45318;SDS011;31057;48.498;32.260;2023-09-19T13:17:02;15.95;;;8.98;;
45318;SDS011;31057;48.498;32.260;2023-09-19T13:19:40;10.07;;;7.60;;
45318;SDS011;31057;48.498;32.260;2023-09-19T13:22:04;13.45;;;8.48;;
45318;SDS011;31057;48.498;32.260;2023-09-19T13:24:23;11.10;;;8.07;;
45318;SDS011;31057;48.498;32.260;2023-09-19T13:26:29;12.80;;;8.63;;
45318;SDS011;31057;48.498;32.260;2023-09-19T13:28:31;12.68;;;8.70;;
45318;SDS011;31057;48.498;32.260;2023-09-19T13:30:36;14.23;;;9.65;;
45318;SDS011;31057;48.498;32.260;2023-09-19T13:32:43;15.98;;;9.82;;
45318;SDS011;31057;48.498;32.260;2023-09-19T13:34:48;24.15;;;16.60;;
45318;SDS011;31057;48.498;32.260;2023-09-19T13:36:50;17.95;;;10.57;;
45318;SDS011;31057;48.498;32.260;2023-09-19T13:38:52;36.33;;;19.70;;
45318;SDS011;31057;48.498;32.260;2023-09-19T13:40:54;16.85;;;7.80;;
45318;SDS011;31057;48.498;32.260;2023-09-19T13:42:57;12.80;;;8.00;;
45318;SDS011;31057;48.498;32.260;2023-09-19T13:45:00;15.27;;;10.30;;
45318;SDS011;31057;48.498;32.260;2023-09-19T13:47:02;8.60;;;7.65;;
45318;SDS011;31057;48.498;32.260;2023-09-19T13:49:04;19.73;;;9.63;;
45318;SDS011;31057;48.498;32.260;2023-09-19T13:51:06;23.15;;;12.07;;
45318;SDS011;31057;48.498;32.260;2023-09-19T13:53:09;27.35;;;14.88;;
45318;SDS011;31057;48.498;32.260;2023-09-19T13:55:11;10.60;;;7.50;;
45318;SDS011;31057;48.498;32.260;2023-09-19T13:57:16;10.80;;;9.40;;
45318;SDS011;31057;48.498;32.260;2023-09-19T13:59:18;17.08;;;9.02;;
45318;SDS011;31057;48.498;32.260;2023-09-19T14:01:20;18.40;;;8.10;;
45318;SDS011;31057;48.498;32.260;2023-09-19T14:03:22;17.33;;;9.80;;
45318;SDS011;31057;48.498;32.260;2023-09-19T14:05:25;16.15;;;7.90;;
45318;SDS011;31057;48.498;32.260;2023-09-19T14:07:29;22.75;;;9.65;;
45318;SDS011;31057;48.498;32.260;2023-09-19T14:09:31;20.58;;;11.20;;
45318;SDS011;31057;48.498;32.260;2023-09-19T14:11:33;17.88;;;9.20;;
45318;SDS011;31057;48.498;32.260;2023-09-19T14:13:35;15.63;;;10.45;;
45318;SDS011;31057;48.498;32.260;2023-09-19T14:15:37;18.45;;;8.60;;
45318;SDS011;31057;48.498;32.260;2023-09-19T14:17:39;8.82;;;7.85;;
45318;SDS011;31057;48.498;32.260;2023-09-19T14:19:47;24.65;;;10.93;;
45318;SDS011;31057;48.498;32.260;2023-09-19T14:21:50;12.68;;;9.20;;
45318;SDS011;31057;48.498;32.260;2023-09-19T14:23:52;18.15;;;9.10;;
45318;SDS011;31057;48.498;32.260;2023-09-19T14:25:56;25.48;;;9.82;;
45318;SDS011;31057;48.498;32.260;2023-09-19T14:27:58;11.95;;;7.53;;
45318;SDS011;31057;48.498;32.260;2023-09-19T14:30:00;10.88;;;7.82;;
45318;SDS011;31057;48.498;32.260;2023-09-19T14:32:02;13.45;;;7.65;;
45318;SDS011;31057;48.498;32.260;2023-09-19T14:34:04;15.45;;;7.57;;
45318;SDS011;31057;48.498;32.260;2023-09-19T14:36:07;10.88;;;7.30;;
45318;SDS011;31057;48.498;32.260;2023-09-19T14:38:11;8.98;;;6.85;;
45318;SDS011;31057;48.498;32.260;2023-09-19T14:40:13;9.60;;;7.65;;
45318;SDS011;31057;48.498;32.260;2023-09-19T14:42:18;16.60;;;8.82;;
45318;SDS011;31057;48.498;32.260;2023-09-19T14:44:20;20.50;;;8.52;;
45318;SDS011;31057;48.498;32.260;2023-09-19T14:46:22;12.65;;;8.30;;